Time;durP1;ratioP1;P1;durP2;ratioP2;P2;SDS_P1;SDS_P2;PMS_P1;PMS_P2;Temp;Humidity;BMP_temperature;BMP_pressure;BME280_temperature;BME280_humidity;BME280_pressure;Samples;Min_cycle;Max_cycle;Signal;HPM_P1;HPM_P2
2022/12/07 00:01:17;;;;;;;9.63;1.98;;;4.60;99.90;;;;;;4897007;29;20048;-85
2022/12/07 00:03:44;;;;;;;5.50;2.00;;;4.60;99.90;;;;;;4897183;29;20056;-85
2022/12/07 00:06:12;;;;;;;7.10;1.80;;;4.50;99.90;;;;;;4898067;29;20413;-85
2022/12/07 00:08:38;;;;;;;4.30;1.65;;;4.50;99.90;;;;;;4897577;29;20044;-85
2022/12/07 00:11:05;;;;;;;6.50;1.70;;;4.50;99.90;;;;;;4897205;29;20135;-85
2022/12/07 00:13:31;;;;;;;7.63;1.70;;;4.50;99.90;;;;;;4897594;29;20477;-85
2022/12/07 00:16:04;;;;;;;7.57;1.40;;;4.50;99.90;;;;;;4897371;29;20044;-85
2022/12/07 00:18:30;;;;;;;5.37;1.80;;;4.50;99.90;;;;;;4898570;29;20047;-85
2022/12/07 00:21:13;;;;;;;7.95;1.73;;;4.50;99.90;;;;;;4898506;29;20037;-85
2022/12/07 00:23:40;;;;;;;7.68;1.48;;;4.40;99.90;;;;;;4897005;29;20049;-86
2022/12/07 00:26:21;;;;;;;5.32;1.60;;;4.40;99.90;;;;;;4897020;29;20370;-85
2022/12/07 00:28:48;;;;;;;7.03;1.38;;;4.40;99.90;;;;;;4897008;29;20048;-84
2022/12/07 00:31:16;;;;;;;5.05;1.65;;;4.40;99.90;;;;;;4898598;29;20097;-85
2022/12/07 00:33:42;;;;;;;9.00;1.80;;;4.40;99.90;;;;;;4897125;29;20051;-85
2022/12/07 00:36:14;;;;;;;5.88;1.52;;;4.40;99.90;;;;;;4897056;29;20148;-85
2022/12/07 00:38:40;;;;;;;8.00;2.10;;;4.40;99.90;;;;;;4897992;29;20507;-85
2022/12/07 00:41:10;;;;;;;7.72;1.70;;;4.40;99.90;;;;;;4897052;29;20524;-85
2022/12/07 00:43:35;;;;;;;5.97;1.55;;;4.40;99.90;;;;;;4898731;29;20441;-84
2022/12/07 00:46:01;;;;;;;6.47;1.60;;;4.40;99.90;;;;;;4897693;29;20108;-85
2022/12/07 00:48:27;;;;;;;6.82;1.30;;;4.40;99.90;;;;;;4898939;29;20072;-85
2022/12/07 00:50:53;;;;;;;8.18;1.63;;;4.30;99.90;;;;;;4899646;29;20101;-85
2022/12/07 00:53:19;;;;;;;6.30;1.42;;;4.40;99.90;;;;;;4900884;29;20123;-86
2022/12/07 00:55:45;;;;;;;5.53;1.42;;;4.30;99.90;;;;;;4902039;29;20076;-84
2022/12/07 00:58:12;;;;;;;5.47;1.30;;;4.30;99.90;;;;;;4901448;29;20509;-85
2022/12/07 01:00:39;;;;;;;4.90;1.40;;;4.30;99.90;;;;;;4900154;29;20049;-85
2022/12/07 01:03:05;;;;;;;6.47;1.33;;;4.30;99.90;;;;;;4902822;29;20108;-85
2022/12/07 01:05:31;;;;;;;8.77;1.48;;;4.30;99.90;;;;;;4900223;29;20064;-85
2022/12/07 01:07:57;;;;;;;3.90;1.25;;;4.30;99.90;;;;;;4901182;29;20052;-85
2022/12/07 01:10:23;;;;;;;9.13;1.50;;;4.30;99.90;;;;;;4901739;29;20099;-85
2022/12/07 01:12:48;;;;;;;6.03;1.38;;;4.30;99.90;;;;;;4902638;29;20111;-84
2022/12/07 01:15:14;;;;;;;8.07;1.30;;;4.20;99.90;;;;;;4898783;29;20055;-85
2022/12/07 01:17:39;;;;;;;6.78;1.38;;;4.20;99.90;;;;;;4902032;29;20056;-85
2022/12/07 01:20:06;;;;;;;5.25;1.42;;;4.20;99.90;;;;;;4901770;29;20047;-85
2022/12/07 01:22:37;;;;;;;6.13;1.23;;;4.20;99.90;;;;;;4901405;29;20404;-85
2022/12/07 01:25:03;;;;;;;3.60;1.20;;;4.20;99.90;;;;;;4902235;29;20100;-85
2022/12/07 01:27:30;;;;;;;7.53;1.52;;;4.20;99.90;;;;;;4902104;29;20073;-85
2022/12/07 01:29:56;;;;;;;5.07;1.40;;;4.10;99.90;;;;;;4901167;29;20390;-85
2022/12/07 01:32:21;;;;;;;5.65;1.23;;;4.10;99.90;;;;;;4901315;29;20119;-85
2022/12/07 01:34:50;;;;;;;3.25;1.10;;;4.10;99.90;;;;;;4901389;29;20048;-85
2022/12/07 01:37:16;;;;;;;6.47;1.20;;;4.10;99.90;;;;;;4898807;29;20469;-85
2022/12/07 01:39:41;;;;;;;7.25;1.30;;;4.10;99.90;;;;;;4899850;29;20084;-84
2022/12/07 01:42:11;;;;;;;9.57;1.30;;;4.10;99.90;;;;;;4899879;29;20092;-84
2022/12/07 01:45:31;;;;;;;4.53;1.20;;;4.10;99.90;;;;;;4900508;29;20434;-85
2022/12/07 01:47:58;;;;;;;5.28;1.10;;;4.10;99.90;;;;;;4899712;29;20485;-84
2022/12/07 01:50:27;;;;;;;7.22;1.98;;;4.10;99.90;;;;;;4897870;29;20049;-84
2022/12/07 01:52:55;;;;;;;6.25;1.10;;;4.10;99.90;;;;;;4900234;29;20516;-85
2022/12/07 01:55:21;;;;;;;8.38;1.10;;;4.10;99.90;;;;;;4899599;29;20045;-85
2022/12/07 01:57:49;;;;;;;5.95;1.10;;;4.10;99.90;;;;;;4900425;29;20048;-85
2022/12/07 02:00:16;;;;;;;9.52;1.40;;;4.10;99.90;;;;;;4899471;29;20045;-85
2022/12/07 02:02:46;;;;;;;6.00;1.08;;;4.10;99.90;;;;;;4900795;29;20453;-84
2022/12/07 02:05:12;;;;;;;6.47;1.38;;;4.10;99.90;;;;;;4898116;29;20100;-85
2022/12/07 02:07:38;;;;;;;5.15;1.00;;;4.10;99.90;;;;;;4901344;29;20076;-85
2022/12/07 02:10:19;;;;;;;5.07;0.90;;;4.10;99.90;;;;;;4901185;29;20037;-85
2022/12/07 02:12:53;;;;;;;7.18;1.40;;;4.10;99.90;;;;;;4899923;29;20405;-85
2022/12/07 02:15:21;;;;;;;6.43;1.20;;;4.10;99.90;;;;;;4885771;29;20047;-84
2022/12/07 02:18:00;;;;;;;4.93;1.20;;;4.10;99.90;;;;;;4899684;29;20049;-85
2022/12/07 02:20:55;;;;;;;6.57;1.38;;;4.10;99.90;;;;;;4900691;29;20037;-85
2022/12/07 02:23:51;;;;;;;6.35;1.02;;;4.10;99.90;;;;;;4891861;29;20071;-84
2022/12/07 02:26:34;;;;;;;4.18;1.00;;;4.00;99.90;;;;;;4900012;29;20044;-84
2022/12/07 02:29:14;;;;;;;;;;;4.00;99.90;;;;;;4899722;29;20075;-84
2022/12/07 02:31:48;;;;;;;4.82;1.00;;;4.00;99.90;;;;;;4898438;29;19923;-86
2022/12/07 02:34:35;;;;;;;;;;;4.00;99.90;;;;;;4899465;29;20128;-84
2022/12/07 02:37:09;;;;;;;4.88;1.08;;;3.90;99.90;;;;;;4893657;29;20067;-84
2022/12/07 02:39:50;;;;;;;4.88;0.90;;;4.00;99.90;;;;;;4889148;29;20041;-85
2022/12/07 02:42:23;;;;;;;6.18;1.23;;;4.00;99.90;;;;;;4898864;29;20045;-84
2022/12/07 02:44:50;;;;;;;5.32;1.10;;;4.00;99.90;;;;;;4892413;29;20052;-85
2022/12/07 02:47:18;;;;;;;4.22;1.00;;;3.90;99.90;;;;;;4891394;29;20052;-85
2022/12/07 02:49:45;;;;;;;4.18;0.85;;;4.00;99.90;;;;;;4898745;29;20048;-85
2022/12/07 02:52:10;;;;;;;6.60;0.90;;;3.90;99.90;;;;;;4898725;29;20060;-84
2022/12/07 02:54:36;;;;;;;6.47;1.13;;;4.00;99.90;;;;;;4899426;29;20045;-85
2022/12/07 02:57:44;;;;;;;5.10;1.08;;;4.00;99.90;;;;;;4892024;29;20140;-85
2022/12/07 03:00:16;;;;;;;3.03;0.90;;;4.00;99.90;;;;;;4879411;29;20132;-85
2022/12/07 03:02:58;;;;;;;8.30;1.15;;;3.90;99.90;;;;;;4892020;29;20049;-85
2022/12/07 03:05:42;;;;;;;9.65;1.20;;;3.90;99.90;;;;;;4895905;29;20082;-85
2022/12/07 03:09:12;;;;;;;6.82;1.20;;;4.00;99.90;;;;;;4898033;29;20108;-85
2022/12/07 03:11:48;;;;;;;6.07;1.08;;;3.90;99.90;;;;;;4878603;29;20052;-86
2022/12/07 03:14:29;;;;;;;5.72;1.05;;;3.90;99.90;;;;;;4859664;29;20056;-86
2022/12/07 03:17:07;;;;;;;7.68;1.15;;;4.00;99.90;;;;;;4877171;29;20055;-86
2022/12/07 03:19:35;;;;;;;7.97;1.08;;;3.90;99.90;;;;;;4899043;29;20068;-86
2022/12/07 03:22:05;;;;;;;4.43;0.90;;;4.00;99.90;;;;;;4897646;29;20461;-86
2022/12/07 03:24:53;;;;;;;7.00;1.05;;;4.00;99.90;;;;;;4898464;29;20401;-86
2022/12/07 03:27:27;;;;;;;8.55;1.13;;;4.00;99.90;;;;;;4899345;29;20378;-86
2022/12/07 03:29:55;;;;;;;5.45;0.98;;;4.00;99.90;;;;;;4898651;29;20393;-86
2022/12/07 03:32:28;;;;;;;11.85;1.35;;;4.00;99.90;;;;;;4899180;29;20131;-86
2022/12/07 03:35:16;;;;;;;6.18;1.10;;;4.00;99.90;;;;;;4897648;29;20397;-85
2022/12/07 03:38:04;;;;;;;4.90;0.77;;;4.00;99.90;;;;;;4899478;29;20049;-86
2022/12/07 03:40:42;;;;;;;9.65;1.10;;;4.00;99.90;;;;;;4897700;29;20076;-85
2022/12/07 03:43:08;;;;;;;4.82;1.00;;;4.00;99.90;;;;;;4898311;29;20048;-85
2022/12/07 03:45:51;;;;;;;6.75;0.90;;;4.00;99.90;;;;;;4898204;29;20116;-85
2022/12/07 03:48:34;;;;;;;8.80;1.10;;;4.00;99.90;;;;;;4898479;29;20100;-85
2022/12/07 03:51:22;;;;;;;10.23;1.02;;;3.90;99.90;;;;;;4895203;29;20112;-85
2022/12/07 03:54:08;;;;;;;6.93;0.88;;;3.90;99.90;;;;;;4897579;29;20449;-86
2022/12/07 03:56:35;;;;;;;9.02;1.25;;;3.90;99.90;;;;;;4890029;29;20143;-86
2022/12/07 03:59:00;;;;;;;10.20;1.33;;;3.90;99.90;;;;;;4898466;29;20131;-86
2022/12/07 04:01:27;;;;;;;9.13;1.05;;;3.90;99.90;;;;;;4896910;29;20080;-86
2022/12/07 04:03:53;;;;;;;4.88;0.80;;;4.00;99.90;;;;;;4896126;29;20409;-85
2022/12/07 04:06:18;;;;;;;10.70;1.20;;;4.00;99.90;;;;;;4897954;29;20054;-86
2022/12/07 04:08:44;;;;;;;5.63;0.82;;;4.00;99.90;;;;;;4897040;29;20040;-85
2022/12/07 04:11:10;;;;;;;6.63;0.90;;;4.00;99.90;;;;;;4896659;29;20040;-86
2022/12/07 04:14:18;;;;;;;6.25;0.82;;;4.00;99.90;;;;;;4898781;29;20047;-85
2022/12/07 04:16:21;;;;;;;4.75;0.95;;;4.00;99.90;;;;;;4897576;29;20056;-85
2022/12/07 04:18:46;;;;;;;5.93;1.00;;;3.90;99.90;;;;;;4897198;29;20393;-85
2022/12/07 04:21:12;;;;;;;4.18;0.60;;;3.90;99.90;;;;;;4896968;29;20493;-85
2022/12/07 04:23:38;;;;;;;5.40;0.80;;;3.90;99.90;;;;;;4897655;29;20088;-85
2022/12/07 04:26:03;;;;;;;3.75;0.73;;;3.90;99.90;;;;;;4896182;29;20052;-85
2022/12/07 04:28:29;;;;;;;6.05;0.80;;;3.90;99.90;;;;;;4898344;29;20532;-85
2022/12/07 04:30:54;;;;;;;6.15;0.90;;;3.90;99.90;;;;;;4896554;29;20412;-85
2022/12/07 04:33:20;;;;;;;4.10;1.00;;;3.90;99.90;;;;;;4896882;29;20195;-86
2022/12/07 04:35:45;;;;;;;4.25;0.80;;;3.90;99.90;;;;;;4897956;29;20441;-85
2022/12/07 04:38:11;;;;;;;5.78;0.80;;;3.80;99.90;;;;;;4895618;29;20052;-85
2022/12/07 04:40:37;;;;;;;6.10;0.75;;;3.90;99.90;;;;;;4897368;29;20040;-86
2022/12/07 04:43:02;;;;;;;8.65;1.17;;;3.90;99.90;;;;;;4897096;29;20048;-85
2022/12/07 04:45:28;;;;;;;5.43;0.82;;;3.90;99.90;;;;;;4895946;29;20109;-85
2022/12/07 04:47:53;;;;;;;3.80;0.52;;;3.90;99.90;;;;;;4896928;29;20092;-86
2022/12/07 04:50:19;;;;;;;5.15;0.90;;;3.80;99.90;;;;;;4896075;29;20048;-86
2022/12/07 04:52:45;;;;;;;4.10;0.70;;;3.80;99.90;;;;;;4898109;29;20044;-85
2022/12/07 04:55:10;;;;;;;7.70;0.68;;;3.80;99.90;;;;;;4897627;29;20052;-85
2022/12/07 04:57:36;;;;;;;6.28;0.82;;;3.80;99.90;;;;;;4898532;29;20374;-85
2022/12/07 05:00:02;;;;;;;6.43;0.90;;;3.80;99.90;;;;;;4896667;29;20041;-86
2022/12/07 05:02:28;;;;;;;6.10;0.80;;;3.80;99.90;;;;;;4897071;29;20108;-85
2022/12/07 05:04:53;;;;;;;6.05;0.75;;;3.80;99.90;;;;;;4895672;29;20056;-86
2022/12/07 05:07:19;;;;;;;4.50;0.80;;;3.80;99.90;;;;;;4895674;29;20057;-86
2022/12/07 05:09:45;;;;;;;5.72;0.70;;;3.80;99.90;;;;;;4896756;29;20049;-85
2022/12/07 05:12:10;;;;;;;3.85;0.80;;;3.70;99.90;;;;;;4896910;29;20056;-85
2022/12/07 05:14:36;;;;;;;2.92;0.60;;;3.70;99.90;;;;;;4896752;29;20120;-85
2022/12/07 05:17:01;;;;;;;4.57;0.77;;;3.70;99.90;;;;;;4897725;29;20045;-85
2022/12/07 05:19:27;;;;;;;4.65;0.80;;;3.70;99.90;;;;;;4896038;29;20040;-84
2022/12/07 05:21:53;;;;;;;5.38;0.90;;;3.70;99.90;;;;;;4897133;29;20064;-85
2022/12/07 05:24:18;;;;;;;3.90;0.60;;;3.70;99.90;;;;;;4897669;29;20044;-84
2022/12/07 05:26:44;;;;;;;3.50;0.70;;;3.70;99.90;;;;;;4896439;29;20493;-83
2022/12/07 05:29:12;;;;;;;4.63;0.75;;;3.70;99.90;;;;;;4896101;29;20044;-89
2022/12/07 05:31:38;;;;;;;6.22;0.80;;;3.60;99.90;;;;;;4896396;29;20486;-89
2022/12/07 05:34:04;;;;;;;7.57;0.70;;;3.60;99.90;;;;;;4897979;29;20049;-89
2022/12/07 05:36:31;;;;;;;7.00;0.85;;;3.60;99.90;;;;;;4895568;29;20044;-89
2022/12/07 05:38:57;;;;;;;3.95;0.75;;;3.60;99.90;;;;;;4897930;29;20075;-89
2022/12/07 05:44:08;;;;;;;5.75;0.70;;;3.60;99.90;;;;;;4899514;29;20052;-87
2022/12/07 05:46:34;;;;;;;4.10;0.80;;;3.50;99.90;;;;;;4901295;29;20409;-89
2022/12/07 05:49:00;;;;;;;6.00;0.90;;;3.50;99.90;;;;;;4899200;29;20059;-89
2022/12/07 05:51:25;;;;;;;6.90;0.93;;;3.50;99.90;;;;;;4899809;29;20139;-85
2022/12/07 05:53:51;;;;;;;8.18;0.88;;;3.50;99.90;;;;;;4898830;29;20036;-84
2022/12/07 05:56:16;;;;;;;3.42;0.70;;;3.40;99.90;;;;;;4899031;29;20085;-84
2022/12/07 06:01:26;;;;;;;4.80;0.57;;;3.40;99.90;;;;;;4899481;29;20489;-84
2022/12/07 06:03:52;;;;;;;5.60;0.75;;;3.40;99.90;;;;;;4900101;29;20056;-84
2022/12/07 06:06:18;;;;;;;5.43;0.68;;;3.40;99.90;;;;;;4914884;29;20489;-84
2022/12/07 06:08:43;;;;;;;6.93;0.98;;;3.40;99.90;;;;;;4899927;29;20115;-84
2022/12/07 06:13:53;;;;;;;8.73;0.90;;;3.40;99.90;;;;;;4899349;29;20049;-84
2022/12/07 06:16:19;;;;;;;7.60;1.17;;;3.40;99.90;;;;;;4898996;29;20056;-84
2022/12/07 06:18:44;;;;;;;4.53;0.98;;;3.40;99.90;;;;;;4900205;29;20092;-83
2022/12/07 06:21:10;;;;;;;5.78;0.85;;;3.30;99.90;;;;;;4899359;29;20453;-83
2022/12/07 06:23:35;;;;;;;4.35;0.85;;;3.40;99.90;;;;;;4898782;29;20055;-84
2022/12/07 06:26:01;;;;;;;2.80;0.60;;;3.40;99.90;;;;;;4899531;29;20045;-84
2022/12/07 06:28:26;;;;;;;6.88;1.08;;;3.40;99.90;;;;;;4899013;29;20059;-84
2022/12/07 06:30:59;;;;;;;4.22;0.80;;;3.40;99.90;;;;;;4899831;29;20144;-84
2022/12/07 06:33:25;;;;;;;11.30;1.00;;;3.40;99.90;;;;;;4899283;29;20625;-84
2022/12/07 06:35:51;;;;;;;4.93;0.77;;;3.40;99.90;;;;;;4900069;29;20796;-84
2022/12/07 06:38:16;;;;;;;6.70;0.80;;;3.40;99.90;;;;;;4897770;29;20044;-84
2022/12/07 06:40:42;;;;;;;5.53;0.90;;;3.40;99.90;;;;;;4898127;29;20048;-84
2022/12/07 06:43:08;;;;;;;5.47;0.70;;;3.40;99.90;;;;;;4898582;29;20040;-84
2022/12/07 06:45:34;;;;;;;7.72;1.17;;;3.40;99.90;;;;;;4898035;29;20040;-84
2022/12/07 06:47:59;;;;;;;6.60;0.90;;;3.40;99.90;;;;;;4900264;29;20049;-84
2022/12/07 06:50:25;;;;;;;3.42;0.82;;;3.40;99.90;;;;;;4897822;29;20044;-84
2022/12/07 06:52:52;;;;;;;5.10;0.90;;;3.40;99.90;;;;;;4897889;29;20084;-84
2022/12/07 06:55:17;;;;;;;4.82;0.90;;;3.40;99.90;;;;;;4898273;29;20036;-84
2022/12/07 06:57:43;;;;;;;6.28;1.25;;;3.40;99.90;;;;;;4899212;29;20041;-84
2022/12/07 07:00:10;;;;;;;5.43;0.80;;;3.40;99.90;;;;;;4899704;29;20116;-84
2022/12/07 07:02:35;;;;;;;5.13;0.93;;;3.40;99.90;;;;;;4899651;29;20055;-84
2022/12/07 07:05:01;;;;;;;6.68;1.00;;;3.40;99.90;;;;;;4898147;29;20088;-84
2022/12/07 07:07:27;;;;;;;5.00;1.17;;;3.40;99.90;;;;;;4898802;29;20048;-84
2022/12/07 07:09:52;;;;;;;5.30;0.80;;;3.40;99.90;;;;;;4898475;29;20044;-84
2022/12/07 07:12:18;;;;;;;4.88;0.98;;;3.40;99.90;;;;;;4898335;29;20044;-84
2022/12/07 07:14:43;;;;;;;6.30;0.77;;;3.40;99.90;;;;;;4898041;29;20124;-84
2022/12/07 07:17:09;;;;;;;6.25;0.98;;;3.40;99.90;;;;;;4899206;29;20055;-84
2022/12/07 07:19:34;;;;;;;7.60;1.20;;;3.40;99.90;;;;;;4898128;29;20044;-84
2022/12/07 07:22:00;;;;;;;3.47;0.68;;;3.40;99.90;;;;;;4898736;29;20108;-84
2022/12/07 07:24:26;;;;;;;2.60;0.70;;;3.40;99.90;;;;;;4898361;29;20040;-84
2022/12/07 07:26:51;;;;;;;6.43;0.82;;;3.40;99.90;;;;;;4897157;29;20065;-84
2022/12/07 07:29:17;;;;;;;4.28;1.00;;;3.40;99.90;;;;;;4899012;29;20047;-84
2022/12/07 07:31:42;;;;;;;8.68;0.77;;;3.40;99.90;;;;;;4898284;29;20048;-84
2022/12/07 07:34:08;;;;;;;6.30;0.93;;;3.40;99.90;;;;;;4898501;29;20765;-83
2022/12/07 07:36:34;;;;;;;6.60;1.00;;;3.40;99.90;;;;;;4899345;29;20093;-84
2022/12/07 07:38:59;;;;;;;9.32;1.42;;;3.40;99.90;;;;;;4899430;29;20108;-83
2022/12/07 07:41:25;;;;;;;6.57;1.08;;;3.40;99.90;;;;;;4897899;29;20497;-83
2022/12/07 07:43:50;;;;;;;9.30;1.10;;;3.40;99.90;;;;;;4897546;29;20047;-83
2022/12/07 07:46:16;;;;;;;9.63;1.27;;;3.40;99.90;;;;;;4897358;29;20114;-84
2022/12/07 07:48:41;;;;;;;3.05;0.75;;;3.40;99.90;;;;;;4897989;29;20045;-85
2022/12/07 07:51:08;;;;;;;8.32;1.17;;;3.40;99.90;;;;;;4897474;29;20466;-84
2022/12/07 07:53:33;;;;;;;4.68;0.70;;;3.40;99.90;;;;;;4897715;29;20443;-84
2022/12/07 07:55:59;;;;;;;4.40;0.90;;;3.40;99.90;;;;;;4897082;29;20073;-83
2022/12/07 07:58:25;;;;;;;4.63;1.08;;;3.40;99.90;;;;;;4897160;29;20096;-83
2022/12/07 08:00:51;;;;;;;3.92;0.80;;;3.40;99.90;;;;;;4880564;29;20041;-83
2022/12/07 08:03:16;;;;;;;6.22;1.10;;;3.40;99.90;;;;;;4877120;29;20382;-84
2022/12/07 08:05:42;;;;;;;3.85;0.80;;;3.40;99.90;;;;;;4878615;29;20092;-84
2022/12/07 08:08:08;;;;;;;7.72;0.90;;;3.40;99.90;;;;;;4878614;29;20049;-83
2022/12/07 08:10:35;;;;;;;4.35;0.80;;;3.30;99.90;;;;;;4878189;29;20136;-84
2022/12/07 08:13:16;;;;;;;4.15;1.02;;;3.30;99.90;;;;;;4878745;29;20081;-84
2022/12/07 08:15:47;;;;;;;7.75;1.27;;;3.30;99.90;;;;;;4893773;29;20057;-84
2022/12/07 08:18:14;;;;;;;7.18;1.00;;;3.30;99.90;;;;;;4896702;29;20048;-83
2022/12/07 08:20:41;;;;;;;4.57;0.90;;;3.30;99.90;;;;;;4897354;29;20040;-83
2022/12/07 08:23:07;;;;;;;6.03;0.90;;;3.30;99.90;;;;;;4895941;29;20060;-83
2022/12/07 08:25:33;;;;;;;7.20;1.25;;;3.30;99.90;;;;;;4898195;29;20048;-83
2022/12/07 08:28:00;;;;;;;6.57;0.93;;;3.30;99.90;;;;;;4896937;29;20489;-83
2022/12/07 08:30:27;;;;;;;7.50;1.55;;;3.30;99.90;;;;;;4895947;29;20096;-83
2022/12/07 08:32:52;;;;;;;11.70;1.63;;;3.30;99.90;;;;;;4896654;29;20118;-84
2022/12/07 08:35:18;;;;;;;6.57;1.10;;;3.30;99.90;;;;;;4897128;29;20075;-86
2022/12/07 08:37:44;;;;;;;9.07;1.45;;;3.30;99.90;;;;;;4897315;29;20511;-85
2022/12/07 08:40:14;;;;;;;7.07;1.17;;;3.30;99.90;;;;;;4896800;29;20056;-84
2022/12/07 08:42:44;;;;;;;6.90;1.25;;;3.40;99.90;;;;;;4897733;29;20056;-84
2022/12/07 08:45:12;;;;;;;6.97;1.25;;;3.40;99.90;;;;;;4897167;29;20136;-84
2022/12/07 08:47:43;;;;;;;4.68;1.10;;;3.40;99.90;;;;;;4896478;29;20045;-84
2022/12/07 08:50:11;;;;;;;5.25;0.90;;;3.40;99.90;;;;;;4896376;29;20048;-84
2022/12/07 08:52:38;;;;;;;4.30;1.00;;;3.40;99.90;;;;;;4895449;29;20087;-83
2022/12/07 08:55:04;;;;;;;8.80;1.40;;;3.40;99.90;;;;;;4896080;29;20068;-83
2022/12/07 08:57:32;;;;;;;6.72;1.35;;;3.40;99.90;;;;;;4897689;29;20049;-83
2022/12/07 08:59:57;;;;;;;7.40;1.40;;;3.40;99.90;;;;;;4897415;29;20117;-83
2022/12/07 09:02:24;;;;;;;7.93;1.10;;;3.40;99.90;;;;;;4896310;29;20529;-83
2022/12/07 09:04:49;;;;;;;5.90;1.25;;;3.40;99.90;;;;;;4897318;29;20090;-83
2022/12/07 09:07:15;;;;;;;7.13;1.20;;;3.40;99.90;;;;;;4895064;29;20052;-83
2022/12/07 09:09:41;;;;;;;7.47;1.27;;;3.40;99.90;;;;;;4896450;29;20053;-83
2022/12/07 09:12:07;;;;;;;11.20;1.42;;;3.40;99.90;;;;;;4896391;29;20049;-83
2022/12/07 09:14:33;;;;;;;10.20;1.30;;;3.40;99.90;;;;;;4898675;29;20047;-83
2022/12/07 09:17:07;;;;;;;5.70;1.20;;;3.40;99.90;;;;;;4900502;29;20056;-83
2022/12/07 09:19:32;;;;;;;12.10;1.83;;;3.40;99.90;;;;;;4899738;29;20489;-83
2022/12/07 09:21:58;;;;;;;12.70;1.58;;;3.40;99.90;;;;;;4900811;29;20105;-83
2022/12/07 09:24:23;;;;;;;6.20;1.17;;;3.50;99.90;;;;;;4899782;29;20040;-83
2022/12/07 09:26:49;;;;;;;9.00;1.15;;;3.50;99.90;;;;;;4900494;29;20072;-83
2022/12/07 09:29:14;;;;;;;9.05;1.45;;;3.50;99.90;;;;;;4899719;29;20063;-83
2022/12/07 09:31:40;;;;;;;10.18;1.90;;;3.60;99.90;;;;;;4901208;29;20040;-83
2022/12/07 09:34:07;;;;;;;7.80;1.60;;;3.60;99.90;;;;;;4901098;29;20044;-83
2022/12/07 09:36:33;;;;;;;8.82;1.60;;;3.70;99.90;;;;;;4901178;29;20048;-83
2022/12/07 09:38:58;;;;;;;10.15;1.77;;;3.70;99.90;;;;;;4899767;29;20072;-84
2022/12/07 09:41:26;;;;;;;7.78;1.70;;;3.70;99.90;;;;;;4900004;29;20179;-82
2022/12/07 09:44:03;;;;;;;12.43;2.10;;;3.80;99.90;;;;;;4899577;29;20049;-82
2022/12/07 09:46:34;;;;;;;14.50;3.53;;;3.80;99.90;;;;;;4897721;29;20484;-84
2022/12/07 09:49:00;;;;;;;9.23;1.95;;;3.80;99.90;;;;;;4900504;29;20064;-85
2022/12/07 09:51:26;;;;;;;7.82;1.75;;;3.90;99.90;;;;;;4899763;29;20608;-84
2022/12/07 09:53:53;;;;;;;9.77;1.90;;;3.90;99.90;;;;;;4900532;29;20541;-84
2022/12/07 09:56:20;;;;;;;6.45;1.40;;;3.90;99.90;;;;;;4888367;29;20045;-83
2022/12/07 09:58:47;;;;;;;6.25;1.50;;;4.00;99.90;;;;;;4900005;29;20052;-84
2022/12/07 10:01:15;;;;;;;9.50;1.83;;;3.90;99.90;;;;;;4898771;29;20056;-84
2022/12/07 10:04:04;;;;;;;8.38;1.83;;;4.00;99.90;;;;;;4898635;29;20056;-83
2022/12/07 10:06:30;;;;;;;9.75;1.70;;;4.00;99.90;;;;;;4899970;29;20063;-84
2022/12/07 10:08:56;;;;;;;11.82;2.17;;;4.00;99.90;;;;;;4899082;29;20056;-84
2022/12/07 10:11:21;;;;;;;12.15;1.90;;;4.00;99.90;;;;;;4899459;29;20520;-83
2022/12/07 10:13:52;;;;;;;8.55;1.40;;;4.00;99.90;;;;;;4900757;29;20048;-83
2022/12/07 10:16:24;;;;;;;8.13;1.85;;;4.10;99.90;;;;;;4898666;29;20044;-83
2022/12/07 10:18:50;;;;;;;10.75;1.65;;;4.10;99.90;;;;;;4900612;29;20079;-84
2022/12/07 10:21:23;;;;;;;19.30;6.13;;;4.20;99.90;;;;;;4900257;29;20080;-84
2022/12/07 10:24:12;;;;;;;10.32;3.28;;;4.10;99.90;;;;;;4899094;29;20079;-83
2022/12/07 10:26:51;;;;;;;9.80;3.08;;;4.20;99.90;;;;;;4881619;29;20405;-84
2022/12/07 10:29:23;;;;;;;9.98;2.33;;;4.20;99.90;;;;;;4886344;29;20127;-82
2022/12/07 10:31:56;;;;;;;9.10;1.83;;;4.20;99.90;;;;;;4898036;29;20051;-82
2022/12/07 10:34:29;;;;;;;8.60;1.48;;;4.30;99.90;;;;;;4901121;29;20072;-82
2022/12/07 10:37:16;;;;;;;7.60;1.63;;;4.30;99.90;;;;;;4901685;29;20133;-81
2022/12/07 10:39:50;;;;;;;6.53;1.33;;;4.30;99.90;;;;;;4899379;29;20049;-82
2022/12/07 10:42:28;;;;;;;8.07;1.33;;;4.40;99.90;;;;;;4898498;29;20044;-82
2022/12/07 10:45:17;;;;;;;8.60;1.23;;;4.40;99.90;;;;;;4898535;29;20044;-81
2022/12/07 10:47:58;;;;;;;6.78;1.35;;;4.50;99.90;;;;;;4899203;29;20052;-82
2022/12/07 10:50:48;;;;;;;7.50;1.38;;;4.50;99.90;;;;;;4899982;29;20174;-82
2022/12/07 10:53:24;;;;;;;6.18;1.05;;;4.50;99.90;;;;;;4898767;29;20408;-82
2022/12/07 10:56:24;;;;;;;7.43;1.52;;;4.60;99.90;;;;;;4899659;29;20449;-82
2022/12/07 10:58:49;;;;;;;10.27;1.65;;;4.60;99.90;;;;;;4897907;29;20048;-82
2022/12/07 11:01:23;;;;;;;8.57;1.67;;;4.70;99.90;;;;;;4898535;29;20132;-81
2022/12/07 11:04:07;;;;;;;6.85;1.50;;;4.70;99.90;;;;;;4897828;29;20493;-82
2022/12/07 11:06:32;;;;;;;;;;;4.70;99.90;;;;;;4899328;29;20044;-84
2022/12/07 11:09:29;;;;;;;7.40;1.40;;;4.70;99.90;;;;;;4898617;29;20352;-84
2022/12/07 11:12:37;;;;;;;5.75;1.23;;;4.70;99.90;;;;;;4899020;29;20040;-84
2022/12/07 11:15:18;;;;;;;9.48;2.33;;;4.80;99.90;;;;;;4878409;29;20067;-83
2022/12/07 11:18:10;;;;;;;12.30;2.50;;;4.80;99.90;;;;;;4897786;29;20037;-84
2022/12/07 11:20:43;;;;;;;9.93;1.75;;;4.80;99.90;;;;;;4897224;29;20052;-82
2022/12/07 11:23:31;;;;;;;13.00;2.75;;;4.90;99.90;;;;;;4881595;29;20059;-82
2022/12/07 11:26:45;;;;;;;8.50;1.80;;;4.90;99.90;;;;;;4887062;29;20072;-83
2022/12/07 11:29:22;;;;;;;11.05;2.80;;;5.00;99.90;;;;;;4817993;29;20557;-83
2022/12/07 11:31:58;;;;;;;9.43;1.83;;;5.00;99.90;;;;;;4843270;29;20052;-84
2022/12/07 11:34:32;;;;;;;11.40;2.28;;;5.00;99.90;;;;;;4869599;29;20493;-83
2022/12/07 11:37:04;;;;;;;8.02;1.95;;;5.00;99.90;;;;;;4899378;29;20087;-83
2022/12/07 11:39:33;;;;;;;8.52;1.58;;;5.00;99.90;;;;;;4898585;29;20051;-83
2022/12/07 11:42:24;;;;;;;7.65;1.30;;;5.10;99.90;;;;;;4896889;29;20083;-83
2022/12/07 11:45:16;;;;;;;9.07;1.65;;;5.10;99.90;;;;;;4899235;29;20108;-89
2022/12/07 11:47:54;;;;;;;7.78;1.40;;;5.10;99.90;;;;;;4890463;29;20151;-87
2022/12/07 11:50:40;;;;;;;9.10;1.38;;;5.10;99.90;;;;;;4898648;29;20048;-84
2022/12/07 11:53:09;;;;;;;6.40;1.40;;;5.20;99.90;;;;;;4898102;29;20075;-85
2022/12/07 11:56:02;;;;;;;9.18;1.80;;;5.20;99.90;;;;;;4896448;29;20524;-84
2022/12/07 11:58:50;;;;;;;8.50;1.77;;;5.30;99.90;;;;;;4897904;29;20055;-85
2022/12/07 12:01:35;;;;;;;10.13;1.90;;;5.30;99.90;;;;;;4890560;29;20096;-85
2022/12/07 12:04:06;;;;;;;14.07;3.55;;;5.40;99.90;;;;;;4897279;29;20409;-83
2022/12/07 12:06:34;;;;;;;17.25;4.70;;;5.40;99.90;;;;;;4898126;29;20049;-83
2022/12/07 12:09:23;;;;;;;19.98;5.95;;;5.40;99.90;;;;;;4897420;29;20412;-84
2022/12/07 12:12:21;;;;;;;12.95;3.42;;;5.40;99.90;;;;;;4896846;29;20523;-84
2022/12/07 12:15:05;;;;;;;6.45;2.00;;;5.40;99.90;;;;;;4898014;29;20052;-84
2022/12/07 12:17:55;;;;;;;9.80;2.10;;;5.50;99.90;;;;;;4899805;29;20052;-83
2022/12/07 12:20:42;;;;;;;11.23;2.25;;;5.50;99.90;;;;;;4900665;29;20128;-84
2022/12/07 12:23:16;;;;;;;11.75;2.47;;;5.50;99.90;;;;;;4896968;29;20523;-85
2022/12/07 12:25:47;;;;;;;9.60;2.60;;;5.60;99.90;;;;;;4897024;29;20051;-84
2022/12/07 12:28:34;;;;;;;11.68;2.10;;;5.60;99.90;;;;;;4897458;29;20048;-85
2022/12/07 12:31:13;;;;;;;7.43;1.35;;;5.70;99.90;;;;;;4889451;29;20044;-85
2022/12/07 12:33:45;;;;;;;8.13;1.40;;;5.70;99.90;;;;;;4897943;29;20048;-84
2022/12/07 12:36:23;;;;;;;10.05;1.33;;;5.70;99.90;;;;;;4897515;29;20176;-85
2022/12/07 12:39:08;;;;;;;12.57;1.60;;;5.80;99.90;;;;;;4897106;29;20123;-84
2022/12/07 12:44:19;;;;;;;10.15;1.63;;;5.80;99.90;;;;;;4896419;29;20060;-83
2022/12/07 12:46:50;;;;;;;9.57;1.52;;;5.80;99.90;;;;;;4896909;29;20044;-84
2022/12/07 12:49:21;;;;;;;7.50;1.20;;;5.80;99.90;;;;;;4894876;29;20103;-84
2022/12/07 12:51:54;;;;;;;5.13;1.05;;;5.80;99.90;;;;;;4896646;29;20051;-84
2022/12/07 12:54:30;;;;;;;5.18;1.02;;;5.80;99.90;;;;;;4896748;29;20144;-84
2022/12/07 12:57:17;;;;;;;6.20;0.95;;;5.70;99.90;;;;;;4897173;29;20051;-85
2022/12/07 12:59:55;;;;;;;5.95;0.75;;;5.70;99.90;;;;;;4895596;29;20161;-84
2022/12/07 13:02:24;;;;;;;5.25;0.80;;;5.70;99.90;;;;;;4897545;29;20060;-84
2022/12/07 13:05:15;;;;;;;2.40;0.65;;;5.60;99.90;;;;;;4896408;29;20064;-84
2022/12/07 13:07:44;;;;;;;6.65;0.93;;;5.60;99.90;;;;;;4887516;29;20037;-84
2022/12/07 13:10:31;;;;;;;7.25;1.20;;;5.60;99.90;;;;;;4897180;29;20481;-84
2022/12/07 13:13:08;;;;;;;5.28;1.10;;;5.50;99.90;;;;;;4890375;29;20078;-84
2022/12/07 13:15:53;;;;;;;4.10;1.08;;;5.50;99.90;;;;;;4897278;29;20075;-84
2022/12/07 13:18:28;;;;;;;2.55;0.80;;;5.50;99.90;;;;;;4895746;29;20068;-84
2022/12/07 13:21:07;;;;;;;2.85;0.70;;;5.50;99.90;;;;;;4895743;29;20075;-84
2022/12/07 13:23:55;;;;;;;5.38;0.90;;;5.50;99.90;;;;;;4894095;29;20047;-85
2022/12/07 13:26:29;;;;;;;4.15;0.88;;;5.50;99.90;;;;;;4896123;29;20047;-85
2022/12/07 13:29:11;;;;;;;3.50;0.77;;;5.50;99.90;;;;;;4894654;29;20088;-85
2022/12/07 13:32:03;;;;;;;2.67;0.73;;;5.50;99.90;;;;;;4897373;29;20049;-85